This is the latest recevied weather packets stored in our database for station/object SR5NLK-1. If no packets are shown the sender has not sent any weather packets the latest 10 day(s).
| Time | Temp. | Humidity | Pressure | Rain* | Wind** | Luminosity | Snow |
|---|---|---|---|---|---|---|---|
| 1787649836 | 27.78° C | 46% | 1077.6 hPa | 0 mm | - | - | - |
| 1787649604 | 22.22° C | 52% | 1072.1 hPa | 0 mm | - | - | - |
| 1787649543 | 22.22° C | 52% | 1039.7 hPa | 0 mm | - | - | - |
| 1787649478 | 27.78° C | 46% | 1084.6 hPa | 0 mm | - | - | - |
| 1787649304 | 22.22° C | 51% | 1072.1 hPa | 0 mm | - | - | - |
| 1787648805 | 26.67° C | 47% | 1038.2 hPa | 0 mm | - | - | - |
| 1787648404 | 23.33° C | 51% | 1002.9 hPa | 0 mm | - | - | - |
| 1787648147 | 27.22° C | 46% | 1068.9 hPa | 0 mm | - | - | - |
| 1787648104 | 23.33° C | 51% | 1043 hPa | 0 mm | - | - | - |
| 1787647804 | 23.33° C | 50% | 991.6 hPa | 0 mm | - | - | - |
| 1787647563 | 23.89° C | 48% | 1044 hPa | 0 mm | - | - | - |
| 1787647516 | 27.22° C | 47% | 1056.4 hPa | 0 mm | - | - | - |
| 1787647504 | 23.89° C | 48% | 1053.4 hPa | 0 mm | - | - | - |
| 1787647205 | 24.44° C | 49% | 1098.8 hPa | 0 mm | - | - | - |
| 1787646904 | 23.89° C | 48% | 1036.5 hPa | 0 mm | - | - | - |
| 1787646727 | 27.22° C | 48% | 1076.8 hPa | 0 mm | - | - | - |
| 1787646604 | 25° C | 45% | 1084.6 hPa | 0 mm | - | - | - |
| 1787646374 | 27.22° C | 47% | 1086.2 hPa | 0 mm | - | - | - |
| 1787646304 | 26.67° C | 44% | 1075.3 hPa | 0 mm | - | - | - |
| 1787646034 | 27.22° C | 48% | 1022.5 hPa | 0 mm | - | - | - |
| 1787646004 | 27.78° C | 44% | 1045.9 hPa | 0 mm | - | - | - |
| 1787645704 | 27.78° C | 45% | 1081.5 hPa | 0 mm | - | - | - |
| 1787645584 | 27.78° C | 46% | 1007.6 hPa | 0 mm | - | - | - |
| 1787645404 | 27.78° C | 45% | 1094.1 hPa | 0 mm | - | - | - |
| 1787645104 | 27.78° C | 46% | 1077.6 hPa | 0 mm | - | - | - |
* Rain latest hour (hover to see other rain measurements)
** Current wind speed in m/s (hover to see current wind gust speed)